Time;durP1;ratioP1;P1;durP2;ratioP2;P2;SDS_P1;SDS_P2;PMS_P1;PMS_P2;Temp;Humidity;BMP_temperature;BMP_pressure;BME280_temperature;BME280_humidity;BME280_pressure;Samples;Min_cycle;Max_cycle;Signal;HPM_P1;HPM_P2
2023/09/06 00:01:17;;;;;;;5.72;4.40;;;;;;;;;;4966733;28;25097;-62
2023/09/06 00:03:43;;;;;;;4.60;4.03;;;;;;;;;;4963498;28;24953;-63
2023/09/06 00:06:11;;;;;;;8.57;3.97;;;;;;;;;;4963723;28;25153;-60
2023/09/06 00:08:37;;;;;;;9.48;3.88;;;;;;;;;;4964665;28;25066;-61
2023/09/06 00:11:06;;;;;;;5.70;3.80;;;;;;;;;;4965679;28;25145;-61
2023/09/06 00:13:36;;;;;;;5.57;3.65;;;;;;;;;;4958653;28;25068;-61
2023/09/06 00:16:02;;;;;;;7.32;4.35;;;;;;;;;;4961242;28;25053;-61
2023/09/06 00:18:28;;;;;;;5.53;4.07;;;;;;;;;;4961580;28;25048;-61
2023/09/06 00:20:57;;;;;;;4.72;3.75;;;;;;;;;;4964746;28;25081;-61
2023/09/06 00:23:24;;;;;;;8.25;4.25;;;;;;;;;;4962190;28;25077;-60
2023/09/06 00:25:50;;;;;;;5.68;3.80;;;;;;;;;;4962408;28;25101;-62
2023/09/06 00:28:19;;;;;;;5.00;4.05;;;;;;;;;;4962078;28;25072;-62
2023/09/06 00:30:45;;;;;;;7.15;4.10;;;;;;;;;;4964329;28;25061;-63
2023/09/06 00:33:12;;;;;;;5.70;3.65;;;;;;;;;;4965370;28;25072;-63
2023/09/06 00:35:39;;;;;;;6.40;4.10;;;;;;;;;;4969042;28;25146;-60
2023/09/06 00:38:05;;;;;;;7.45;3.83;;;;;;;;;;4966220;28;25070;-63
2023/09/06 00:40:31;;;;;;;6.00;4.45;;;;;;;;;;4965747;28;25103;-61
2023/09/06 00:43:01;;;;;;;5.72;4.30;;;;;;;;;;4964196;28;25172;-61
2023/09/06 00:45:50;;;;;;;8.27;3.85;;;;;;;;;;4958596;28;25058;-62
2023/09/06 00:48:22;;;;;;;5.82;3.60;;;;;;;;;;4961037;28;25049;-63
2023/09/06 00:50:50;;;;;;;4.50;3.95;;;;;;;;;;4965965;28;25144;-62
2023/09/06 00:53:17;;;;;;;5.80;3.80;;;;;;;;;;4966767;28;25096;-62
2023/09/06 00:55:43;;;;;;;4.55;3.90;;;;;;;;;;4968007;28;25057;-62
2023/09/06 00:58:09;;;;;;;6.28;4.60;;;;;;;;;;4966799;28;25076;-62
2023/09/06 01:00:35;;;;;;;5.60;3.53;;;;;;;;;;4965207;28;25068;-62
2023/09/06 01:03:05;;;;;;;4.97;4.28;;;;;;;;;;4967233;28;25063;-61
2023/09/06 01:05:33;;;;;;;7.68;4.50;;;;;;;;;;4962540;28;25074;-62
2023/09/06 01:08:01;;;;;;;5.25;4.20;;;;;;;;;;4964394;28;25068;-61
2023/09/06 01:10:27;;;;;;;6.65;4.63;;;;;;;;;;4967974;28;25073;-61
2023/09/06 01:12:56;;;;;;;6.13;4.30;;;;;;;;;;4959374;28;25067;-61
2023/09/06 01:15:23;;;;;;;8.40;5.13;;;;;;;;;;4964729;28;25089;-61
2023/09/06 01:17:50;;;;;;;7.22;4.53;;;;;;;;;;4965139;28;25073;-61
2023/09/06 01:20:19;;;;;;;7.35;5.22;;;;;;;;;;4961454;28;25096;-63
2023/09/06 01:22:51;;;;;;;9.23;4.95;;;;;;;;;;4961002;28;25059;-62
2023/09/06 01:25:18;;;;;;;12.77;5.45;;;;;;;;;;4967436;28;25170;-61
2023/09/06 01:27:44;;;;;;;7.20;4.50;;;;;;;;;;4959447;28;25076;-61
2023/09/06 01:30:11;;;;;;;7.28;4.65;;;;;;;;;;4966143;28;25059;-60
2023/09/06 01:32:37;;;;;;;9.20;5.53;;;;;;;;;;4965519;28;25065;-62
2023/09/06 01:35:06;;;;;;;10.00;4.85;;;;;;;;;;4967998;28;25079;-62
2023/09/06 01:37:35;;;;;;;10.05;4.78;;;;;;;;;;4966222;28;25050;-61
2023/09/06 01:40:00;;;;;;;6.20;4.72;;;;;;;;;;4968653;28;25073;-64
2023/09/06 01:42:27;;;;;;;6.60;4.80;;;;;;;;;;4962486;28;25095;-60
2023/09/06 01:44:53;;;;;;;9.70;4.63;;;;;;;;;;4961756;28;25060;-61
2023/09/06 01:47:19;;;;;;;9.77;4.63;;;;;;;;;;4967861;28;25081;-61
2023/09/06 01:49:45;;;;;;;7.88;4.30;;;;;;;;;;4967482;28;25041;-61
2023/09/06 01:52:11;;;;;;;9.15;4.30;;;;;;;;;;4965904;28;25082;-61
2023/09/06 01:54:37;;;;;;;6.53;4.95;;;;;;;;;;4964099;28;25152;-61
2023/09/06 01:57:03;;;;;;;7.63;4.65;;;;;;;;;;4964626;28;25057;-62
2023/09/06 01:59:29;;;;;;;6.78;4.60;;;;;;;;;;4958142;28;25127;-62
2023/09/06 02:01:56;;;;;;;5.93;4.72;;;;;;;;;;4965419;28;25097;-61
2023/09/06 02:04:22;;;;;;;8.80;4.85;;;;;;;;;;4959826;28;25047;-62
2023/09/06 02:06:49;;;;;;;8.10;4.88;;;;;;;;;;4966069;28;25078;-62
2023/09/06 02:09:17;;;;;;;6.25;4.88;;;;;;;;;;4962645;28;25167;-61
2023/09/06 02:11:43;;;;;;;8.50;4.93;;;;;;;;;;4968221;28;25075;-61
2023/09/06 02:14:09;;;;;;;8.27;4.38;;;;;;;;;;4963732;28;25083;-61
2023/09/06 02:16:35;;;;;;;5.90;4.88;;;;;;;;;;4967703;28;25098;-62
2023/09/06 02:19:01;;;;;;;11.40;5.45;;;;;;;;;;4958356;28;25051;-62
2023/09/06 02:21:28;;;;;;;9.25;4.88;;;;;;;;;;4961695;28;25110;-61
2023/09/06 02:23:56;;;;;;;6.43;4.20;;;;;;;;;;4955985;28;25117;-61
2023/09/06 02:26:22;;;;;;;8.00;4.45;;;;;;;;;;4958434;28;25144;-62
2023/09/06 02:28:50;;;;;;;7.03;4.60;;;;;;;;;;4961032;28;25127;-61
2023/09/06 02:31:16;;;;;;;4.60;4.20;;;;;;;;;;4967318;28;25087;-60
2023/09/06 02:33:43;;;;;;;7.85;4.43;;;;;;;;;;4963551;28;25109;-62
2023/09/06 02:36:09;;;;;;;6.75;4.35;;;;;;;;;;4973314;28;25132;-61
2023/09/06 02:38:35;;;;;;;6.13;4.65;;;;;;;;;;4967245;28;25064;-61
2023/09/06 02:41:01;;;;;;;5.63;4.25;;;;;;;;;;4968433;28;25100;-62
2023/09/06 02:43:27;;;;;;;6.35;4.20;;;;;;;;;;4962778;28;25101;-62
2023/09/06 02:45:54;;;;;;;4.93;4.43;;;;;;;;;;4966625;28;25106;-61
2023/09/06 02:48:21;;;;;;;8.43;4.80;;;;;;;;;;4966186;28;25062;-61
2023/09/06 02:50:47;;;;;;;5.18;4.32;;;;;;;;;;4956886;28;25079;-62
2023/09/06 02:53:19;;;;;;;7.50;4.53;;;;;;;;;;4964271;28;25063;-62
2023/09/06 02:55:51;;;;;;;6.90;4.65;;;;;;;;;;4961568;28;25075;-62
2023/09/06 02:58:18;;;;;;;7.55;4.72;;;;;;;;;;4963104;28;25075;-62
2023/09/06 03:00:47;;;;;;;6.45;4.60;;;;;;;;;;4961069;28;25149;-62
2023/09/06 03:03:15;;;;;;;6.78;5.18;;;;;;;;;;4959279;28;25061;-61
2023/09/06 03:05:42;;;;;;;8.05;4.90;;;;;;;;;;4967100;28;26177;-60
2023/09/06 03:08:12;;;;;;;5.20;4.68;;;;;;;;;;4965056;28;25144;-64
2023/09/06 03:10:39;;;;;;;8.38;5.13;;;;;;;;;;4966729;28;25110;-61
2023/09/06 03:13:05;;;;;;;6.65;4.75;;;;;;;;;;4963249;28;25062;-62
2023/09/06 03:15:31;;;;;;;10.02;5.05;;;;;;;;;;4966472;28;25182;-62
2023/09/06 03:17:58;;;;;;;8.27;4.90;;;;;;;;;;4965884;28;25116;-61
2023/09/06 03:20:43;;;;;;;7.28;4.70;;;;;;;;;;4964280;28;25146;-61
2023/09/06 03:23:19;;;;;;;6.00;4.65;;;;;;;;;;4963740;28;25064;-61
2023/09/06 03:25:45;;;;;;;7.72;4.70;;;;;;;;;;4966600;28;25069;-62
2023/09/06 03:28:13;;;;;;;7.72;5.05;;;;;;;;;;4964057;28;25051;-61
2023/09/06 03:30:39;;;;;;;9.50;5.28;;;;;;;;;;4965734;28;25075;-62
2023/09/06 03:33:06;;;;;;;6.60;5.00;;;;;;;;;;4961310;28;25061;-61
2023/09/06 03:35:32;;;;;;;8.65;5.47;;;;;;;;;;4965534;28;25101;-62
2023/09/06 03:37:58;;;;;;;9.23;5.45;;;;;;;;;;4960061;28;25056;-62
2023/09/06 03:40:37;;;;;;;7.63;5.47;;;;;;;;;;4967808;28;25051;-61
2023/09/06 03:43:15;;;;;;;7.45;5.30;;;;;;;;;;4959577;28;25159;-62
2023/09/06 03:45:44;;;;;;;8.77;5.55;;;;;;;;;;4967089;28;25057;-61
2023/09/06 03:48:10;;;;;;;6.55;5.50;;;;;;;;;;4964811;28;25070;-61
2023/09/06 03:50:36;;;;;;;9.05;5.20;;;;;;;;;;4963773;28;25078;-61
2023/09/06 03:53:04;;;;;;;8.50;6.18;;;;;;;;;;4965189;28;25061;-63
2023/09/06 03:55:31;;;;;;;8.18;5.18;;;;;;;;;;4965373;28;25150;-62
2023/09/06 03:57:58;;;;;;;9.90;6.10;;;;;;;;;;4962575;28;25088;-60
2023/09/06 04:00:30;;;;;;;12.07;5.20;;;;;;;;;;4962885;28;25092;-62
2023/09/06 04:02:56;;;;;;;;;;;;;;;;;;4956820;28;25051;-61
2023/09/06 04:05:25;;;;;;;7.35;4.90;;;;;;;;;;4965759;28;24064;-61
2023/09/06 04:07:58;;;;;;;9.70;5.38;;;;;;;;;;4966377;28;25098;-61
2023/09/06 04:10:27;;;;;;;9.20;5.60;;;;;;;;;;4965108;28;25063;-61
2023/09/06 04:12:55;;;;;;;8.32;5.10;;;;;;;;;;4963709;28;25163;-62
2023/09/06 04:15:21;;;;;;;8.82;6.10;;;;;;;;;;4965693;28;25056;-61
2023/09/06 04:17:57;;;;;;;8.18;5.82;;;;;;;;;;4964857;28;25061;-62
2023/09/06 04:20:23;;;;;;;8.52;5.75;;;;;;;;;;4965757;28;25161;-62
2023/09/06 04:22:51;;;;;;;6.47;5.18;;;;;;;;;;4965176;28;25099;-62
2023/09/06 04:25:18;;;;;;;7.72;5.13;;;;;;;;;;4960656;28;25103;-61
2023/09/06 04:27:47;;;;;;;8.07;5.90;;;;;;;;;;4965802;28;25063;-63
2023/09/06 04:30:17;;;;;;;9.82;6.78;;;;;;;;;;4964961;28;25064;-60
2023/09/06 04:32:46;;;;;;;9.25;6.28;;;;;;;;;;4963433;28;25171;-62
2023/09/06 04:35:15;;;;;;;8.45;6.25;;;;;;;;;;4964881;28;25069;-61
2023/09/06 04:37:41;;;;;;;9.63;6.15;;;;;;;;;;4965057;28;25048;-63
2023/09/06 04:40:11;;;;;;;9.30;6.80;;;;;;;;;;4962848;28;25066;-64
2023/09/06 04:42:39;;;;;;;9.32;6.20;;;;;;;;;;4960502;28;25085;-61
2023/09/06 04:45:05;;;;;;;7.18;5.88;;;;;;;;;;4957501;28;25062;-61
2023/09/06 04:47:31;;;;;;;10.40;6.45;;;;;;;;;;4960295;28;25104;-62
2023/09/06 04:49:58;;;;;;;7.60;5.80;;;;;;;;;;4963739;28;25052;-62
2023/09/06 04:52:24;;;;;;;10.75;6.88;;;;;;;;;;4961557;28;25060;-62
2023/09/06 04:54:52;;;;;;;9.30;6.28;;;;;;;;;;4968111;28;25107;-62
2023/09/06 04:57:18;;;;;;;9.43;6.28;;;;;;;;;;4965706;28;25170;-62
2023/09/06 04:59:44;;;;;;;9.32;6.40;;;;;;;;;;4962003;28;25085;-63
2023/09/06 05:02:10;;;;;;;10.05;6.32;;;;;;;;;;4956135;28;25060;-62
2023/09/06 05:04:36;;;;;;;9.95;6.45;;;;;;;;;;4961664;28;25086;-64
2023/09/06 05:07:04;;;;;;;13.25;7.00;;;;;;;;;;4964437;28;25062;-63
2023/09/06 05:09:30;;;;;;;8.85;6.00;;;;;;;;;;4960073;28;25074;-62
2023/09/06 05:11:56;;;;;;;8.45;5.82;;;;;;;;;;4958514;28;25063;-64
2023/09/06 05:14:22;;;;;;;7.22;5.55;;;;;;;;;;4961381;28;25071;-62
2023/09/06 05:16:48;;;;;;;12.38;6.13;;;;;;;;;;4964250;28;25052;-62
2023/09/06 05:19:14;;;;;;;9.20;6.10;;;;;;;;;;4962684;28;25154;-62
2023/09/06 05:21:40;;;;;;;9.50;6.00;;;;;;;;;;4958839;28;25062;-63
2023/09/06 05:24:06;;;;;;;8.73;6.15;;;;;;;;;;4962062;28;25079;-61
2023/09/06 05:26:35;;;;;;;8.10;6.18;;;;;;;;;;4961901;28;25061;-61
2023/09/06 05:29:04;;;;;;;9.45;5.93;;;;;;;;;;4961100;28;25062;-62
2023/09/06 05:31:30;;;;;;;8.45;6.03;;;;;;;;;;4962697;28;25063;-63
2023/09/06 05:33:56;;;;;;;9.25;6.05;;;;;;;;;;4959653;28;25072;-62
2023/09/06 05:36:22;;;;;;;14.45;6.88;;;;;;;;;;4961763;28;25068;-62
2023/09/06 05:38:48;;;;;;;9.55;6.13;;;;;;;;;;4958983;28;25068;-62
2023/09/06 05:41:15;;;;;;;9.48;6.05;;;;;;;;;;4966332;28;25152;-63
2023/09/06 05:43:41;;;;;;;8.82;6.20;;;;;;;;;;4961964;28;25145;-63
2023/09/06 05:46:07;;;;;;;7.95;6.55;;;;;;;;;;4966979;28;25106;-62
2023/09/06 05:48:33;;;;;;;8.40;6.43;;;;;;;;;;4963984;28;25133;-62
2023/09/06 05:50:59;;;;;;;8.50;6.07;;;;;;;;;;4967285;28;25069;-62
2023/09/06 05:53:26;;;;;;;9.30;6.65;;;;;;;;;;4965339;28;25103;-61
2023/09/06 05:55:52;;;;;;;7.60;5.78;;;;;;;;;;4963752;28;25144;-62
2023/09/06 05:58:18;;;;;;;8.65;6.35;;;;;;;;;;4965051;28;25163;-61
2023/09/06 06:00:43;;;;;;;11.43;6.90;;;;;;;;;;4958572;28;25131;-61
2023/09/06 06:03:10;;;;;;;8.38;6.43;;;;;;;;;;4964892;28;25128;-62
2023/09/06 06:05:36;;;;;;;8.85;6.38;;;;;;;;;;4961609;28;25098;-63
2023/09/06 06:08:02;;;;;;;13.65;6.45;;;;;;;;;;4966103;28;25157;-62
2023/09/06 06:10:34;;;;;;;9.23;6.28;;;;;;;;;;4966040;28;25077;-63
2023/09/06 06:13:00;;;;;;;8.00;6.45;;;;;;;;;;4965906;28;25078;-63
2023/09/06 06:15:26;;;;;;;10.68;7.07;;;;;;;;;;4957234;28;25072;-62
2023/09/06 06:17:52;;;;;;;8.20;6.13;;;;;;;;;;4964446;28;25069;-61
2023/09/06 06:20:17;;;;;;;10.02;5.97;;;;;;;;;;4962854;28;25099;-61
2023/09/06 06:22:44;;;;;;;12.82;6.88;;;;;;;;;;4962699;28;25089;-62
2023/09/06 06:25:10;;;;;;;12.98;6.22;;;;;;;;;;4966163;28;25069;-62
2023/09/06 06:27:37;;;;;;;8.70;6.20;;;;;;;;;;4965809;28;25078;-63
2023/09/06 06:30:05;;;;;;;9.30;6.20;;;;;;;;;;4962903;28;25095;-61
2023/09/06 06:32:32;;;;;;;12.13;6.55;;;;;;;;;;4957942;28;25087;-63
2023/09/06 06:35:01;;;;;;;11.43;6.03;;;;;;;;;;4984729;23;25068;-71
2023/09/06 06:37:27;;;;;;;10.77;6.22;;;;;;;;;;4974862;28;25080;-72
2023/09/06 06:39:54;;;;;;;7.50;5.18;;;;;;;;;;4988288;28;25063;-72
2023/09/06 06:42:20;;;;;;;7.30;5.60;;;;;;;;;;4984405;28;25079;-71
2023/09/06 06:44:47;;;;;;;7.43;5.63;;;;;;;;;;4986494;28;25113;-71
2023/09/06 06:47:13;;;;;;;8.23;5.68;;;;;;;;;;4990225;28;25059;-73
2023/09/06 06:49:39;;;;;;;6.95;5.65;;;;;;;;;;4995769;28;25057;-73
2023/09/06 06:52:05;;;;;;;10.07;5.95;;;;;;;;;;4994735;28;25074;-72
2023/09/06 06:54:31;;;;;;;10.05;5.38;;;;;;;;;;5000029;28;25075;-72
2023/09/06 06:56:57;;;;;;;11.20;5.95;;;;;;;;;;5006542;28;25085;-71
2023/09/06 06:59:23;;;;;;;7.22;5.68;;;;;;;;;;4997419;28;25087;-71
2023/09/06 07:01:49;;;;;;;8.10;5.40;;;;;;;;;;4991590;28;25176;-73
2023/09/06 07:04:15;;;;;;;8.60;6.07;;;;;;;;;;4995242;28;25472;-72
2023/09/06 07:06:41;;;;;;;8.70;6.32;;;;;;;;;;4988496;28;25123;-72
2023/09/06 07:09:07;;;;;;;9.30;6.05;;;;;;;;;;4983689;28;25066;-73
2023/09/06 07:11:33;;;;;;;12.40;6.40;;;;;;;;;;4989542;28;25063;-72
2023/09/06 07:13:59;;;;;;;9.45;6.05;;;;;;;;;;4986097;28;25110;-72
2023/09/06 07:16:25;;;;;;;9.05;5.60;;;;;;;;;;4986663;28;25099;-72
2023/09/06 07:18:51;;;;;;;10.77;6.13;;;;;;;;;;4990041;28;25089;-71
2023/09/06 07:21:18;;;;;;;9.15;6.70;;;;;;;;;;4987973;28;25082;-72
2023/09/06 07:23:45;;;;;;;11.13;6.45;;;;;;;;;;4989769;28;25056;-73
2023/09/06 07:26:11;;;;;;;9.38;6.72;;;;;;;;;;4990287;28;25097;-72
2023/09/06 07:28:45;;;;;;;10.80;7.38;;;;;;;;;;4993392;28;25058;-73
2023/09/06 07:31:11;;;;;;;10.05;6.40;;;;;;;;;;4994195;28;25150;-72
2023/09/06 07:33:38;;;;;;;8.40;6.05;;;;;;;;;;4992193;28;25134;-70
2023/09/06 07:36:04;;;;;;;10.43;6.38;;;;;;;;;;4985068;28;25056;-72
2023/09/06 07:38:30;;;;;;;9.18;5.82;;;;;;;;;;4987041;28;25067;-71
2023/09/06 07:41:00;;;;;;;7.72;6.93;;;;;;;;;;4989029;28;25056;-72
2023/09/06 07:43:28;;;;;;;11.10;6.18;;;;;;;;;;4990052;28;25071;-72
2023/09/06 07:45:54;;;;;;;8.70;7.07;;;;;;;;;;4989533;28;25053;-73
2023/09/06 07:48:20;;;;;;;8.25;6.15;;;;;;;;;;4984831;28;25078;-72
2023/09/06 07:50:48;;;;;;;10.52;6.28;;;;;;;;;;4990374;28;25096;-72
2023/09/06 07:53:14;;;;;;;6.00;4.95;;;;;;;;;;4988531;28;25149;-72
2023/09/06 07:55:42;;;;;;;11.10;6.25;;;;;;;;;;4980852;28;25077;-72
2023/09/06 07:58:08;;;;;;;9.30;6.22;;;;;;;;;;4981358;28;25062;-72
2023/09/06 08:00:36;;;;;;;7.32;5.80;;;;;;;;;;4984009;28;25065;-72
2023/09/06 08:03:02;;;;;;;6.68;5.50;;;;;;;;;;4986989;28;25086;-72
2023/09/06 08:05:28;;;;;;;11.35;6.18;;;;;;;;;;4991170;28;25058;-72
2023/09/06 08:07:54;;;;;;;8.88;6.05;;;;;;;;;;4990396;28;25057;-72
2023/09/06 08:10:21;;;;;;;8.43;6.20;;;;;;;;;;4980692;28;25150;-73
2023/09/06 08:12:47;;;;;;;8.43;6.40;;;;;;;;;;4988511;28;25089;-73
2023/09/06 08:15:13;;;;;;;11.52;6.15;;;;;;;;;;4988346;28;25059;-73
2023/09/06 08:17:39;;;;;;;12.73;5.75;;;;;;;;;;4995347;28;25067;-71
2023/09/06 08:20:08;;;;;;;10.23;5.25;;;;;;;;;;4986187;28;25051;-73
2023/09/06 08:22:35;;;;;;;8.82;6.18;;;;;;;;;;4988422;28;25141;-74
2023/09/06 08:25:02;;;;;;;9.55;5.82;;;;;;;;;;4995424;28;25080;-74
2023/09/06 08:27:28;;;;;;;9.80;5.97;;;;;;;;;;4988428;28;25081;-73
2023/09/06 08:29:54;;;;;;;8.27;5.18;;;;;;;;;;4990432;28;25103;-74
2023/09/06 08:32:20;;;;;;;8.18;6.00;;;;;;;;;;4990767;28;25065;-73
2023/09/06 08:34:46;;;;;;;6.78;5.28;;;;;;;;;;4996276;28;25056;-71
2023/09/06 08:37:12;;;;;;;7.22;4.80;;;;;;;;;;4994804;28;25051;-73
2023/09/06 08:39:38;;;;;;;9.60;5.60;;;;;;;;;;4990176;28;25106;-73
2023/09/06 08:42:06;;;;;;;5.80;4.82;;;;;;;;;;4985019;28;25066;-74
2023/09/06 08:44:32;;;;;;;5.30;4.80;;;;;;;;;;4985964;28;25055;-75
2023/09/06 08:47:00;;;;;;;8.77;4.85;;;;;;;;;;4988887;28;25065;-75
2023/09/06 08:49:27;;;;;;;7.55;5.07;;;;;;;;;;4986480;28;25063;-74
2023/09/06 08:51:55;;;;;;;10.23;4.90;;;;;;;;;;4987096;28;25086;-73
2023/09/06 08:54:22;;;;;;;7.03;4.25;;;;;;;;;;4985832;28;25104;-74
2023/09/06 08:56:48;;;;;;;5.10;3.72;;;;;;;;;;4985567;28;25143;-74
2023/09/06 08:59:14;;;;;;;7.15;4.38;;;;;;;;;;4985707;28;25132;-75
2023/09/06 09:01:40;;;;;;;7.45;4.38;;;;;;;;;;4979616;28;25072;-74
2023/09/06 09:04:06;;;;;;;6.60;4.25;;;;;;;;;;4986908;28;25073;-74
2023/09/06 09:06:32;;;;;;;7.47;3.85;;;;;;;;;;4984384;28;25059;-74
2023/09/06 09:09:13;;;;;;;7.35;4.32;;;;;;;;;;4984887;28;24728;-72
2023/09/06 09:11:43;;;;;;;5.65;4.30;;;;;;;;;;4996921;28;25048;-75
2023/09/06 09:14:18;;;;;;;8.05;3.78;;;;;;;;;;4996926;28;25143;-73
2023/09/06 09:16:44;;;;;;;5.32;3.75;;;;;;;;;;4997321;28;25068;-75
2023/09/06 09:19:10;;;;;;;6.95;3.70;;;;;;;;;;4991496;28;25054;-75
2023/09/06 09:21:41;;;;;;;7.45;3.50;;;;;;;;;;4987719;28;25089;-75
2023/09/06 09:24:07;;;;;;;7.05;3.35;;;;;;;;;;4994167;28;25158;-75
2023/09/06 09:26:33;;;;;;;8.18;3.28;;;;;;;;;;4991852;28;25153;-74
2023/09/06 09:29:06;;;;;;;7.55;2.92;;;;;;;;;;4989745;28;25144;-73
2023/09/06 09:31:32;;;;;;;6.68;3.58;;;;;;;;;;4993829;28;25053;-73
2023/09/06 09:33:58;;;;;;;6.57;4.28;;;;;;;;;;4987758;28;25098;-74
2023/09/06 09:36:28;;;;;;;6.70;3.25;;;;;;;;;;4986141;28;25108;-70
2023/09/06 09:38:54;;;;;;;6.85;2.95;;;;;;;;;;4992021;28;25156;-74
2023/09/06 09:41:20;;;;;;;6.72;3.53;;;;;;;;;;4989438;28;25091;-74
2023/09/06 09:43:46;;;;;;;4.82;3.60;;;;;;;;;;4988592;28;25068;-73
2023/09/06 09:46:25;;;;;;;6.32;3.72;;;;;;;;;;4988929;28;25064;-74
2023/09/06 09:48:51;;;;;;;6.40;3.17;;;;;;;;;;4996055;28;25077;-74
2023/09/06 09:51:17;;;;;;;5.95;3.30;;;;;;;;;;4987307;28;25114;-74
2023/09/06 09:53:43;;;;;;;6.03;3.20;;;;;;;;;;4984267;28;25059;-74
2023/09/06 09:56:09;;;;;;;4.45;2.55;;;;;;;;;;4981262;28;25070;-72
2023/09/06 09:58:35;;;;;;;3.53;2.60;;;;;;;;;;4983713;28;25068;-74
2023/09/06 10:01:05;;;;;;;4.13;2.90;;;;;;;;;;4984817;28;25090;-74
2023/09/06 10:03:33;;;;;;;5.53;2.13;;;;;;;;;;4986098;28;25073;-74
2023/09/06 10:05:59;;;;;;;5.97;3.10;;;;;;;;;;4985009;28;25080;-73
2023/09/06 10:08:27;;;;;;;6.93;2.55;;;;;;;;;;4990296;28;25092;-71
2023/09/06 10:10:53;;;;;;;5.55;2.97;;;;;;;;;;4988425;28;25056;-74
2023/09/06 10:13:19;;;;;;;4.65;3.03;;;;;;;;;;4987933;28;25055;-75
2023/09/06 10:15:46;;;;;;;3.53;2.50;;;;;;;;;;4989219;28;25084;-74
2023/09/06 10:18:12;;;;;;;6.32;2.60;;;;;;;;;;4989887;28;25063;-74
2023/09/06 10:20:39;;;;;;;3.35;2.83;;;;;;;;;;4990362;28;25085;-74
2023/09/06 10:23:06;;;;;;;6.55;3.35;;;;;;;;;;4989429;28;25143;-74
2023/09/06 10:25:32;;;;;;;4.35;2.92;;;;;;;;;;4989203;28;25056;-73
2023/09/06 10:27:59;;;;;;;4.93;3.33;;;;;;;;;;4990773;28;25087;-73
2023/09/06 10:30:40;;;;;;;6.25;3.53;;;;;;;;;;4993523;28;25158;-72
2023/09/06 10:33:08;;;;;;;7.50;3.37;;;;;;;;;;4984238;28;25103;-72
2023/09/06 10:35:41;;;;;;;5.63;3.20;;;;;;;;;;4988855;28;25060;-74
2023/09/06 10:38:18;;;;;;;9.77;3.70;;;;;;;;;;4985454;28;25095;-72
2023/09/06 10:40:50;;;;;;;5.30;3.47;;;;;;;;;;4987999;28;25080;-73
2023/09/06 10:43:16;;;;;;;;;;;;;;;;;;4989968;28;25055;-73
2023/09/06 10:45:54;;;;;;;18.50;4.53;;;;;;;;;;4995890;28;24110;-75
2023/09/06 10:48:20;;;;;;;7.85;4.20;;;;;;;;;;4986920;28;25140;-75
2023/09/06 10:51:06;;;;;;;6.35;5.18;;;;;;;;;;4987985;28;25077;-73
2023/09/06 10:53:33;;;;;;;5.30;4.10;;;;;;;;;;4982977;28;25066;-75
2023/09/06 10:56:01;;;;;;;6.28;4.18;;;;;;;;;;4986015;28;25068;-74
2023/09/06 10:58:29;;;;;;;6.43;3.90;;;;;;;;;;4988259;28;25049;-72
2023/09/06 11:01:14;;;;;;;4.60;4.00;;;;;;;;;;4996131;28;25058;-73
2023/09/06 11:03:41;;;;;;;6.07;3.53;;;;;;;;;;4981772;28;25134;-74
2023/09/06 11:06:09;;;;;;;6.93;3.03;;;;;;;;;;4981066;28;25154;-74
2023/09/06 11:08:35;;;;;;;4.95;2.97;;;;;;;;;;4975000;28;25074;-74
2023/09/06 11:11:01;;;;;;;4.63;2.38;;;;;;;;;;4998095;28;25059;-72
2023/09/06 11:13:32;;;;;;;4.13;2.72;;;;;;;;;;4987918;28;25138;-73
2023/09/06 11:15:59;;;;;;;4.68;2.65;;;;;;;;;;4987431;28;25077;-73
2023/09/06 11:18:26;;;;;;;11.25;2.78;;;;;;;;;;4992327;28;25082;-72
2023/09/06 11:20:52;;;;;;;2.80;2.38;;;;;;;;;;4999700;28;25071;-73
2023/09/06 11:23:18;;;;;;;5.65;2.95;;;;;;;;;;4997182;28;25076;-73
2023/09/06 11:25:45;;;;;;;3.45;2.90;;;;;;;;;;4985380;28;25078;-72
2023/09/06 11:28:15;;;;;;;6.90;2.70;;;;;;;;;;4988422;28;25048;-73
2023/09/06 11:30:43;;;;;;;3.70;2.50;;;;;;;;;;4983425;28;25054;-71
2023/09/06 11:33:11;;;;;;;5.50;2.72;;;;;;;;;;4985423;28;25058;-75
2023/09/06 11:35:38;;;;;;;5.68;2.50;;;;;;;;;;4973681;28;25077;-74
2023/09/06 11:38:05;;;;;;;5.38;2.97;;;;;;;;;;4987045;28;25053;-74
2023/09/06 11:40:34;;;;;;;3.88;2.15;;;;;;;;;;4996074;28;25062;-73
2023/09/06 11:43:04;;;;;;;4.38;2.60;;;;;;;;;;4991661;28;25073;-72
2023/09/06 11:45:32;;;;;;;5.63;2.80;;;;;;;;;;4987138;28;25055;-72
2023/09/06 11:48:04;;;;;;;4.57;2.85;;;;;;;;;;4989508;28;25074;-74
2023/09/06 11:50:30;;;;;;;7.72;2.97;;;;;;;;;;4985255;28;25057;-74
2023/09/06 11:52:58;;;;;;;4.55;2.63;;;;;;;;;;4984459;28;25055;-74
2023/09/06 11:55:26;;;;;;;4.78;2.90;;;;;;;;;;4983381;28;25148;-73
2023/09/06 11:57:52;;;;;;;6.82;2.70;;;;;;;;;;4993753;28;25077;-73
2023/09/06 12:00:28;;;;;;;6.85;2.58;;;;;;;;;;4993679;28;25140;-75
2023/09/06 12:03:07;;;;;;;6.18;2.78;;;;;;;;;;4992165;28;25165;-74
2023/09/06 12:05:37;;;;;;;3.63;2.50;;;;;;;;;;4982945;28;25087;-77
2023/09/06 12:08:03;;;;;;;6.40;2.55;;;;;;;;;;4984615;28;25081;-72
2023/09/06 12:10:29;;;;;;;3.28;2.58;;;;;;;;;;4981147;28;25075;-73
2023/09/06 12:12:56;;;;;;;5.13;2.63;;;;;;;;;;4988490;28;25055;-73
2023/09/06 12:15:25;;;;;;;2.50;2.30;;;;;;;;;;4994964;28;25123;-74
2023/09/06 12:17:51;;;;;;;3.95;2.50;;;;;;;;;;4986821;28;25079;-73
2023/09/06 12:20:18;;;;;;;4.13;2.40;;;;;;;;;;4985873;28;25079;-74
2023/09/06 12:22:45;;;;;;;2.17;1.80;;;;;;;;;;4986472;28;25052;-74
2023/09/06 12:25:13;;;;;;;3.60;2.10;;;;;;;;;;4993286;28;25074;-72
2023/09/06 12:27:39;;;;;;;3.90;2.28;;;;;;;;;;4986332;28;25091;-71
2023/09/06 12:30:05;;;;;;;4.47;2.20;;;;;;;;;;4989992;28;25092;-72
2023/09/06 12:32:34;;;;;;;4.18;2.22;;;;;;;;;;4990414;28;24740;-74
2023/09/06 12:34:59;;;;;;;3.78;2.53;;;;;;;;;;4985807;28;25070;-73
2023/09/06 12:37:26;;;;;;;3.22;2.40;;;;;;;;;;4986675;28;25056;-72
2023/09/06 12:39:52;;;;;;;4.68;2.65;;;;;;;;;;4985317;28;25099;-72
2023/09/06 12:42:18;;;;;;;4.10;2.17;;;;;;;;;;4983099;28;25141;-72
2023/09/06 12:44:44;;;;;;;4.80;2.33;;;;;;;;;;4980285;28;25058;-71
2023/09/06 12:47:19;;;;;;;2.47;1.98;;;;;;;;;;4986163;28;25057;-73
2023/09/06 12:49:45;;;;;;;6.65;2.10;;;;;;;;;;4983527;28;25122;-73
2023/09/06 12:52:13;;;;;;;4.85;2.13;;;;;;;;;;4989567;28;25082;-75
2023/09/06 12:54:39;;;;;;;4.38;2.47;;;;;;;;;;4996948;28;25099;-73
2023/09/06 12:57:05;;;;;;;4.72;2.10;;;;;;;;;;4990233;28;25053;-74
2023/09/06 12:59:31;;;;;;;2.95;1.85;;;;;;;;;;4991653;28;25145;-74
2023/09/06 13:01:57;;;;;;;3.78;2.00;;;;;;;;;;4992106;28;25065;-72
2023/09/06 13:04:24;;;;;;;3.50;1.95;;;;;;;;;;4991146;28;25070;-73
2023/09/06 13:06:50;;;;;;;3.58;2.25;;;;;;;;;;4993770;28;25098;-71
2023/09/06 13:09:16;;;;;;;4.07;2.50;;;;;;;;;;4992297;28;25169;-74
2023/09/06 13:11:42;;;;;;;5.00;2.50;;;;;;;;;;4991100;28;25126;-72
2023/09/06 13:14:08;;;;;;;6.40;2.17;;;;;;;;;;4992609;28;25084;-74
2023/09/06 13:16:34;;;;;;;3.25;1.90;;;;;;;;;;4997296;28;25073;-74
2023/09/06 13:19:00;;;;;;;6.60;2.90;;;;;;;;;;4991546;28;25165;-73
2023/09/06 13:21:26;;;;;;;10.57;2.72;;;;;;;;;;4989876;28;25128;-73
2023/09/06 13:23:52;;;;;;;5.43;2.55;;;;;;;;;;4989540;28;25081;-75
2023/09/06 13:26:18;;;;;;;5.25;2.50;;;;;;;;;;4989644;28;25069;-73
2023/09/06 13:28:44;;;;;;;3.15;2.42;;;;;;;;;;4993453;28;25087;-71
2023/09/06 13:31:10;;;;;;;3.63;2.80;;;;;;;;;;4989011;28;25050;-73
2023/09/06 13:33:36;;;;;;;8.00;2.80;;;;;;;;;;4988765;28;25069;-74
2023/09/06 13:36:04;;;;;;;4.63;2.58;;;;;;;;;;4997178;28;25137;-73
2023/09/06 13:38:30;;;;;;;2.67;2.42;;;;;;;;;;4993591;28;25107;-74
2023/09/06 13:40:57;;;;;;;5.00;3.30;;;;;;;;;;4988798;28;25100;-75
2023/09/06 13:43:23;;;;;;;5.07;2.40;;;;;;;;;;4985114;28;25088;-73
2023/09/06 13:45:49;;;;;;;5.53;2.45;;;;;;;;;;4984038;28;25074;-74
2023/09/06 13:48:15;;;;;;;3.00;2.70;;;;;;;;;;4983085;28;25064;-72
2023/09/06 13:50:41;;;;;;;4.13;2.20;;;;;;;;;;4988776;28;25062;-74
2023/09/06 13:53:07;;;;;;;8.73;2.80;;;;;;;;;;4984720;28;25072;-72
2023/09/06 13:55:33;;;;;;;5.28;2.97;;;;;;;;;;4983250;28;25138;-73
2023/09/06 13:57:59;;;;;;;8.07;3.42;;;;;;;;;;4982518;28;25129;-74
2023/09/06 14:00:25;;;;;;;4.82;2.90;;;;;;;;;;4987363;28;25099;-74
2023/09/06 14:02:51;;;;;;;5.20;2.92;;;;;;;;;;4984534;28;25068;-72
2023/09/06 14:05:17;;;;;;;5.75;2.40;;;;;;;;;;4989059;28;25068;-73
2023/09/06 14:07:43;;;;;;;5.00;2.22;;;;;;;;;;4987443;28;25133;-73
2023/09/06 14:10:09;;;;;;;8.13;2.85;;;;;;;;;;4990330;28;25055;-74
2023/09/06 14:12:35;;;;;;;3.60;2.88;;;;;;;;;;4989181;28;25091;-75
2023/09/06 14:15:01;;;;;;;3.05;2.75;;;;;;;;;;4988213;28;25089;-73
2023/09/06 14:17:27;;;;;;;4.03;2.33;;;;;;;;;;4989330;28;25156;-73
2023/09/06 14:19:53;;;;;;;6.05;2.50;;;;;;;;;;4989456;28;25073;-74
2023/09/06 14:22:19;;;;;;;5.43;2.83;;;;;;;;;;4989887;28;25072;-74
2023/09/06 14:24:45;;;;;;;3.95;2.50;;;;;;;;;;4989080;28;25093;-74
2023/09/06 14:27:13;;;;;;;3.58;2.88;;;;;;;;;;4989906;28;25054;-71
2023/09/06 14:29:39;;;;;;;4.28;2.20;;;;;;;;;;4989441;28;25153;-73
2023/09/06 14:32:06;;;;;;;3.85;2.78;;;;;;;;;;4988206;28;25051;-74
2023/09/06 14:34:33;;;;;;;4.03;2.67;;;;;;;;;;4988310;28;25068;-73
2023/09/06 14:36:59;;;;;;;6.25;2.80;;;;;;;;;;4988200;28;25061;-73
2023/09/06 14:39:25;;;;;;;3.05;2.40;;;;;;;;;;4989043;28;25074;-71
2023/09/06 14:41:51;;;;;;;5.63;3.03;;;;;;;;;;4993659;28;25071;-72
2023/09/06 14:44:17;;;;;;;4.70;2.60;;;;;;;;;;4981100;28;25073;-75